KDOV/DOV METAR and TAF weather

Enter ICAO airport designator
Station Type Date Time Source
KDOV METAR 2022/01/29 12:57 UTC NOAA

KDOV 291257Z 31020G26KT 1/2SM R01/4000V5000FT -BLSN BR VV012 M05/M06 A2972 RMK PK WND 32028/43 SLP068 P0000 T10541058 $


Station Type Date Time Source
KDOV Decoded METAR 2022/01/29 12:57 UTC NOAA

Dover Air Force Base, DE, United States (KDOV) 39-08N 075-28W
Jan 29, 2022 - 07:57 AM EST / 2022.01.29 1257 UTC
Wind: from the NW (310 degrees) at 23 MPH (20 KT) gusting to 30 MPH (26 KT) (direction variable):0
Visibility: 1/2 mile(s):0
Sky conditions: obscured
Weather: light blowing snow; mist
Precipitation last hour: A trace
Temperature: 22.3 F (-5.4 C)
Windchill: 6 F (-14 C):1
Dew Point: 21.6 F (-5.8 C)
Relative Humidity: 97%
Pressure (altimeter): 29.72 in. Hg (1006 hPa)
ob: KDOV 291257Z 31020G26KT 1/2SM R01/4000V5000FT -BLSN BR VV012 M05/M06 A2972 RMK PK WND 32028/43 SLP068 P0000 T10541058
cycle: 13

Station Type Date Time Source
KDOV TAF 2022/01/29 11:21 UTC NOAA

TAF
AMD KDOV 291108Z 2911/3014 35020G30KT 0800 +SN OVC010 650053 620356 540204 QNH2968INS
TEMPO 2911/2914 34025G35KT
BECMG 2913/2914 33020G30KT 2400 -SN OVC010 620108 540204 QNH2970INS
BECMG 2918/2919 31015G25KT 9999 NSW SKC 540203 QNH2974INS
BECMG 3001/3002 31015G25KT 9999 SKC 540203 QNH2984INS
BECMG 3005/3006 31015G25KT 9999 SKC 540203 QNH2997INS
BECMG 3009/3010 30010G20KT 9999 SKC 510104 QNH3003INS
BECMG 3013/3014 28009KT 9999 SKC QNH3013INS TXM04/2911Z TNM10/3008Z

Example: see airport list